CCGS Terry Fox — CGTF — position and weather

sailwx.info

Track history (hours):
 
Tides and Currents Weather Stations Pressure Air Temp Water Temp Dewpoint Dewpoint Depression Visibility Wind Speed Wind Dir Waves Ship Positions

Oceanographic research ship CCGS Terry Fox (Canada)

Detailed information on ship capabilities available from ARCUS's ALIAS (Arctic Logistics Information and Support) project.

Last reported at 2020-Apr-03 08:01 UTC. Time now 2020-Apr-03 08:04 UTC.
Position N 48°58' W 057°58'.

Length 88 m; beam 17.82 m; draft 2 m.

MMSI: 316122000.

Date/timePositionNaut miles runAvg speedWind from/ knotsBaromVisibWave heightAir tempDewpointWater temp
2020-Apr-03 08:01N 48°58' W 057°58'0 0.0
2020-Apr-03 07:31N 48°58' W 057°58'0 0.0
2020-Apr-03 06:01N 48°58' W 057°58'0 0.0
2020-Apr-03 05:31N 48°58' W 057°58'0 0.0
2020-Apr-03 05:01N 48°58' W 057°58'0 0.0
2020-Apr-03 04:00N 48°58' W 057°58'0 0.0
2020-Apr-03 03:31N 48°58' W 057°58'0 0.0
2020-Apr-03 02:31N 48°58' W 057°58'6 1.2
2020-Apr-02 21:31N 49°01' W 058°07'1 1.7
2020-Apr-02 21:00N 49°00' W 058°06'6 3.7
2020-Apr-02 19:30N 48°58' W 057°58'0 0.0
2020-Apr-02 19:00N 48°58' W 057°58'0 0.0
2020-Apr-02 18:31N 48°58' W 057°58'0 0.0
2020-Apr-02 15:31N 48°58' W 057°58'0 0.0
2020-Apr-02 13:31N 48°58' W 057°58'0 0.0
2020-Apr-02 12:01N 48°58' W 057°58'0 0.0
2020-Apr-02 11:01N 48°58' W 057°58'0 0.0
2020-Apr-02 10:31N 48°58' W 057°58'0 0.0
2020-Apr-02 09:30N 48°58' W 057°58'0 0.0
2020-Apr-02 08:01N 48°58' W 057°58'0 0.0
2020-Apr-02 07:31N 48°58' W 057°58'0 0.0
2020-Apr-02 05:31N 48°58' W 057°58'0 0.0
2020-Apr-02 02:31N 48°58' W 057°58'0 0.0
2020-Apr-02 02:01N 48°58' W 057°58'0 0.0
2020-Apr-01 23:01N 48°58' W 057°58'0 0.0
2020-Apr-01 22:31N 48°58' W 057°58'9 8.5
2020-Apr-01 21:31N 49°03' W 058°08'7 0.7
2020-Apr-01 10:30N 48°58' W 057°60'1 0.4
2020-Apr-01 08:00N 48°58' W 057°59'0 0.0
2020-Apr-01 07:31N 48°58' W 057°59'0 0.0
2020-Mar-31 22:00N 48°58' W 057°58'0 0.0
2020-Mar-31 21:01N 48°58' W 057°58'0 0.0
2020-Mar-31 20:31N 48°58' W 057°58'0 0.0
2020-Mar-31 18:00N 48°58' W 057°58'0 0.0
2020-Mar-31 16:30N 48°58' W 057°58'0 0.0
2020-Mar-31 16:00N 48°58' W 057°58'0 0.0
2020-Mar-31 11:31N 48°58' W 057°58'0 0.0
2020-Mar-31 11:00N 48°58' W 057°58'0 0.0
2020-Mar-31 10:00N 48°58' W 057°58'0 0.0
2020-Mar-31 09:31N 48°58' W 057°58'0 0.0
2020-Mar-31 08:31N 48°58' W 057°58'0 0.0
2020-Mar-31 07:31N 48°58' W 057°58'0 0.0
2020-Mar-31 06:31N 48°58' W 057°58'0 0.0
2020-Mar-31 05:00N 48°58' W 057°58'0 0.0
2020-Mar-31 04:31N 48°58' W 057°58'0 0.0
2020-Mar-31 03:31N 48°58' W 057°58'0 0.0
2020-Mar-31 01:00N 48°58' W 057°58'0 0.0
2020-Mar-30 23:31N 48°58' W 057°58'11 5.6
2020-Mar-30 21:30N 49°05' W 058°12'0 0.4
2020-Mar-30 20:33N 49°05' W 058°11'239 5.0
2020-Mar-28 20:56N 47°34' W 052°40'2 0.2
2020-Mar-28 12:16N 47°34' W 052°42'0 0.1
2020-Mar-28 08:22N 47°33' W 052°42'0 0.0
2020-Mar-28 06:28N 47°33' W 052°42'0 0.0
2020-Mar-28 05:52N 47°33' W 052°42'0 0.0
2020-Mar-28 02:49N 47°33' W 052°42'0 0.0
2020-Mar-28 02:10N 47°33' W 052°42'0 0.0
2020-Mar-28 01:55N 47°33' W 052°42'0 0.0
2020-Mar-28 00:49N 47°33' W 052°42'0 0.0
2020-Mar-27 22:28N 47°33' W 052°42'0 0.0
2020-Mar-27 12:25N 47°33' W 052°42'0 0.0
2020-Mar-27 07:58N 47°33' W 052°42'0 0.0
2020-Mar-27 05:58N 47°33' W 052°42'0 0.0
2020-Mar-27 03:01N 47°33' W 052°42'0 0.0
2020-Mar-26 21:10N 47°33' W 052°42'0 0.2
2020-Mar-26 20:48N 47°34' W 052°42'  
2020-Mar-24 15:14N 49°06' W 058°09'12 9.5
2020-Mar-24 14:01N 48°58' W 057°57'0 0.3
2020-Mar-24 13:31N 48°58' W 057°56'0 0.0
2020-Mar-24 13:00N 48°58' W 057°56'0 0.0
2020-Mar-24 10:01N 48°58' W 057°56'0 0.0
2020-Mar-24 08:31N 48°58' W 057°56'  
Track history (hours):
 
Tides and Currents Weather Stations Pressure Air Temp Water Temp Dewpoint Dewpoint Depression Visibility Wind Speed Wind Dir Waves Ship Positions

Oceanographic research ship CCGS Terry Fox (Canada)

Detailed information on ship capabilities available from ARCUS's ALIAS (Arctic Logistics Information and Support) project.

Last reported at 2020-Apr-03 08:01 UTC. Time now 2020-Apr-03 08:04 UTC.
Position N 48°58' W 057°58'.

Length 88 m; beam 17.82 m; draft 2 m.

MMSI: 316122000.

Date/timePositionNaut miles runAvg speedWind from/ knotsBaromVisibWave heightAir tempDewpointWater temp
2020-Apr-03 08:01N 48°58' W 057°58'0 0.0
2020-Apr-03 07:31N 48°58' W 057°58'0 0.0
2020-Apr-03 06:01N 48°58' W 057°58'0 0.0
2020-Apr-03 05:31N 48°58' W 057°58'0 0.0
2020-Apr-03 05:01N 48°58' W 057°58'0 0.0
2020-Apr-03 04:00N 48°58' W 057°58'0 0.0
2020-Apr-03 03:31N 48°58' W 057°58'0 0.0
2020-Apr-03 02:31N 48°58' W 057°58'6 1.2
2020-Apr-02 21:31N 49°01' W 058°07'1 1.7
2020-Apr-02 21:00N 49°00' W 058°06'6 3.7
2020-Apr-02 19:30N 48°58' W 057°58'0 0.0
2020-Apr-02 19:00N 48°58' W 057°58'0 0.0
2020-Apr-02 18:31N 48°58' W 057°58'0 0.0
2020-Apr-02 15:31N 48°58' W 057°58'0 0.0
2020-Apr-02 13:31N 48°58' W 057°58'0 0.0
2020-Apr-02 12:01N 48°58' W 057°58'0 0.0
2020-Apr-02 11:01N 48°58' W 057°58'0 0.0
2020-Apr-02 10:31N 48°58' W 057°58'0 0.0
2020-Apr-02 09:30N 48°58' W 057°58'0 0.0
2020-Apr-02 08:01N 48°58' W 057°58'0 0.0
2020-Apr-02 07:31N 48°58' W 057°58'0 0.0
2020-Apr-02 05:31N 48°58' W 057°58'0 0.0
2020-Apr-02 02:31N 48°58' W 057°58'0 0.0
2020-Apr-02 02:01N 48°58' W 057°58'0 0.0
2020-Apr-01 23:01N 48°58' W 057°58'0 0.0
2020-Apr-01 22:31N 48°58' W 057°58'9 8.5
2020-Apr-01 21:31N 49°03' W 058°08'7 0.7
2020-Apr-01 10:30N 48°58' W 057°60'1 0.4
2020-Apr-01 08:00N 48°58' W 057°59'0 0.0
2020-Apr-01 07:31N 48°58' W 057°59'0 0.0
2020-Mar-31 22:00N 48°58' W 057°58'0 0.0
2020-Mar-31 21:01N 48°58' W 057°58'0 0.0
2020-Mar-31 20:31N 48°58' W 057°58'0 0.0
2020-Mar-31 18:00N 48°58' W 057°58'0 0.0
2020-Mar-31 16:30N 48°58' W 057°58'0 0.0
2020-Mar-31 16:00N 48°58' W 057°58'0 0.0
2020-Mar-31 11:31N 48°58' W 057°58'0 0.0
2020-Mar-31 11:00N 48°58' W 057°58'0 0.0
2020-Mar-31 10:00N 48°58' W 057°58'0 0.0
2020-Mar-31 09:31N 48°58' W 057°58'0 0.0
2020-Mar-31 08:31N 48°58' W 057°58'0 0.0
2020-Mar-31 07:31N 48°58' W 057°58'0 0.0
2020-Mar-31 06:31N 48°58' W 057°58'0 0.0
2020-Mar-31 05:00N 48°58' W 057°58'0 0.0
2020-Mar-31 04:31N 48°58' W 057°58'0 0.0
2020-Mar-31 03:31N 48°58' W 057°58'0 0.0
2020-Mar-31 01:00N 48°58' W 057°58'0 0.0
2020-Mar-30 23:31N 48°58' W 057°58'11 5.6
2020-Mar-30 21:30N 49°05' W 058°12'0 0.4
2020-Mar-30 20:33N 49°05' W 058°11'239 5.0
2020-Mar-28 20:56N 47°34' W 052°40'2 0.2
2020-Mar-28 12:16N 47°34' W 052°42'0 0.1
2020-Mar-28 08:22N 47°33' W 052°42'0 0.0
2020-Mar-28 06:28N 47°33' W 052°42'0 0.0
2020-Mar-28 05:52N 47°33' W 052°42'0 0.0
2020-Mar-28 02:49N 47°33' W 052°42'0 0.0
2020-Mar-28 02:10N 47°33' W 052°42'0 0.0
2020-Mar-28 01:55N 47°33' W 052°42'0 0.0
2020-Mar-28 00:49N 47°33' W 052°42'0 0.0
2020-Mar-27 22:28N 47°33' W 052°42'0 0.0
2020-Mar-27 12:25N 47°33' W 052°42'0 0.0
2020-Mar-27 07:58N 47°33' W 052°42'0 0.0
2020-Mar-27 05:58N 47°33' W 052°42'0 0.0
2020-Mar-27 03:01N 47°33' W 052°42'0 0.0
2020-Mar-26 21:10N 47°33' W 052°42'0 0.2
2020-Mar-26 20:48N 47°34' W 052°42'  
2020-Mar-24 15:14N 49°06' W 058°09'12 9.5
2020-Mar-24 14:01N 48°58' W 057°57'0 0.3
2020-Mar-24 13:31N 48°58' W 057°56'0 0.0
2020-Mar-24 13:00N 48°58' W 057°56'0 0.0
2020-Mar-24 10:01N 48°58' W 057°56'0 0.0
2020-Mar-24 08:31N 48°58' W 057°56'  

Dump ship's entire track history